WetterOnline ( https://www.wetteronline.de )

Wetter aktuell Bannewitz

Aktuelles Wetter: Dresden/Klotzsche (232m)

6-stündlich | Neueste Meldungen
Ortszeit Temperatur Wetter
Mo, 30.11. 19:00 -0.2° C leicht bewölkt
Mo, 30.11. 13:00 2.0° C bedeckt
Mo, 30.11. 7:00 -0.2° C bewölkt
Mo, 30.11. 1:00 0.7° C bewölkt
So, 29.11. 19:00 1.3° C bewölkt
So, 29.11. 13:00 2.4° C bedeckt
So, 29.11. 7:00 -0.0° C bedeckt
So, 29.11. 1:00 1.2° C wolkig
Ortszeit Temperatur Wetter
Mo, 30.11. 19:00 -0.2° C leicht bewölkt
Mo, 30.11. 18:50 -0.2° C wolkig
Mo, 30.11. 18:40 -0.4° C leicht bewölkt
Mo, 30.11. 18:30 -0.6° C wolkenlos
Mo, 30.11. 18:20 -0.6° C wolkenlos
Mo, 30.11. 18:10 -0.5° C fast wolkenlos
Mo, 30.11. 18:00 -0.4° C wolkenlos
Mo, 30.11. 17:30 -0.1° C wolkenlos
Mo, 30.11. 17:00 0.2° C fast wolkenlos
Mo, 30.11. 16:30 0.4° C wolkenlos
Mo, 30.11. 16:00 1.2° C fast wolkenlos
Ortszeit Relative Feuchte Sichtweite
Mo, 30.11. 19:00 76% 40 km
Mo, 30.11. 13:00 70% 35 km
Mo, 30.11. 7:00 94% 20 km
Mo, 30.11. 1:00 94% 20 km
So, 29.11. 19:00 94% 25 km
So, 29.11. 13:00 94% 10 km
So, 29.11. 7:00 95% 20 km
So, 29.11. 1:00 86% 45 km
Ortszeit Relative Feuchte Sichtweite
Mo, 30.11. 19:00 76% 40 km
Mo, 30.11. 18:50 76% -
Mo, 30.11. 18:40 77% -
Mo, 30.11. 18:30 78% 35 km
Mo, 30.11. 18:20 78% -
Mo, 30.11. 18:10 78% -
Mo, 30.11. 18:00 78% 40 km
Mo, 30.11. 17:30 76% 45 km
Mo, 30.11. 17:00 72% 40 km
Mo, 30.11. 16:30 70% 65 km
Mo, 30.11. 16:00 66% 35 km
Ortszeit Niederschlagsmenge Niederschlagsart
Mo, 30.11. 19:00 0.0 l/m2 in 12 Std. -
Mo, 30.11. 13:00 0.0 l/m2 in 6 Std. -
Mo, 30.11. 7:00 0.0 l/m2 in 12 Std. -
Mo, 30.11. 1:00 0.0 l/m2 in 6 Std. -
So, 29.11. 19:00 0.3 l/m2 in 12 Std. Regen
So, 29.11. 13:00 0.2 l/m2 in 6 Std. Regenschauer
So, 29.11. 7:00 0.0 l/m2 in 12 Std. -
So, 29.11. 1:00 0.0 l/m2 in 6 Std. -
Ortszeit Niederschlagsmenge Niederschlagsart
Mo, 30.11. 19:00 0.0 l/m2 in 1 Std. -
Mo, 30.11. 18:50 keine Meldung -
Mo, 30.11. 18:40 keine Meldung -
Mo, 30.11. 18:30 0.0 l/m2 in 1 Std. -
Mo, 30.11. 18:20 keine Meldung -
Mo, 30.11. 18:10 keine Meldung -
Mo, 30.11. 18:00 0.0 l/m2 in 1 Std. -
Mo, 30.11. 17:30 0.0 l/m2 in 1 Std. -
Mo, 30.11. 17:00 0.0 l/m2 in 1 Std. -
Mo, 30.11. 16:30 0.0 l/m2 in 1 Std. -
Mo, 30.11. 16:00 0.0 l/m2 in 1 Std. -
Ortszeit Stärke Spitze Richtung
km/h Bft. km/h Grad Sektor
Mo, 30.11. 19:00 15 3 26 160° S
Mo, 30.11. 13:00 14 3 22 210° SW
Mo, 30.11. 7:00 7 2 14 210° SW
Mo, 30.11. 1:00 7 2 18 290° W
So, 29.11. 19:00 11 2 29 340° N
So, 29.11. 13:00 13 3 20 310° NW
So, 29.11. 7:00 6 1 11 290° W
So, 29.11. 1:00 7 2 11 40° NO
Ortszeit Stärke Spitze Richtung
km/h Bft. km/h Grad Sektor
Mo, 30.11. 19:00 15 3 24 160° S
Mo, 30.11. 18:50 15 3 - 160° S
Mo, 30.11. 18:40 14 3 - 160° S
Mo, 30.11. 18:30 17 3 24 160° S
Mo, 30.11. 18:20 17 3 - 160° S
Mo, 30.11. 18:10 18 3 - 160° S
Mo, 30.11. 18:00 18 3 25 160° S
Mo, 30.11. 17:30 18 3 25 160° S
Mo, 30.11. 17:00 14 3 22 160° S
Mo, 30.11. 16:30 13 3 20 170° S
Mo, 30.11. 16:00 14 3 25 170° S
Ortszeit Untergrenze Bedeckung Gattung
total tief tief mittel hoch
Mo, 30.11. 19:00 2700 m 4/8 4/8 - Ac -
Mo, 30.11. 13:00 930 m 8/8 8/8 Sc - -
Mo, 30.11. 7:00 810 m 7/8 7/8 Sc - -
Mo, 30.11. 1:00 390 m 7/8 7/8 Sc - -
So, 29.11. 19:00 240 m 7/8 7/8 Sc - -
So, 29.11. 13:00 120 m 8/8 8/8 St - -
So, 29.11. 7:00 1110 m 8/8 8/8 Sc - -
So, 29.11. 1:00 600 m 6/8 6/8 Cu - -
Ortszeit Bedeckungsgrad in Achtel und Wolkenuntergrenze
Mo, 30.11. 19:00 4(2700m)
Mo, 30.11. 18:50 6(2700m)
Mo, 30.11. 18:40 4(2700m)
Mo, 30.11. 18:30 1(2700m)
Mo, 30.11. 18:20 keine Wolken
Mo, 30.11. 18:10 1(2700m)
Mo, 30.11. 18:00 keine Wolken
Mo, 30.11. 17:30 keine Wolken
Mo, 30.11. 17:00 1(960m)
Mo, 30.11. 16:30 keine Wolken
Mo, 30.11. 16:00 1(960m)
Ortszeit Luftdruck NN (hPa) Tendenz (hPa in 3 Std.)
Mo, 30.11. 19:00 1022 - 1,5
Mo, 30.11. 13:00 1026 - 1,5
Mo, 30.11. 7:00 1027 + 0,2
Mo, 30.11. 1:00 1027 - 0,3
So, 29.11. 19:00 1027 + 0,8
So, 29.11. 13:00 1026 - 0,7
So, 29.11. 7:00 1026 + 0,1
So, 29.11. 1:00 1026 - 0,2
Ortszeit Luftdruck NN (hPa) Tendenz (hPa in 3 Std.)
Mo, 30.11. 19:00 1022 - 1,5
Mo, 30.11. 18:50 1022 keine Meldung
Mo, 30.11. 18:40 1022 keine Meldung
Mo, 30.11. 18:30 1023 - 1,3
Mo, 30.11. 18:20 1023 keine Meldung
Mo, 30.11. 18:10 1023 keine Meldung
Mo, 30.11. 18:00 1023 - 1,4
Mo, 30.11. 17:30 1023 - 1,5
Mo, 30.11. 17:00 1023 - 2,0
Mo, 30.11. 16:30 1024 - 2,1
Mo, 30.11. 16:00 1024 - 2,4
Ortszeit Schneehöhe (cm)
Mo, 30.11. 19:00 0
Mo, 30.11. 13:00 0
Mo, 30.11. 7:00 0
Mo, 30.11. 1:00 0
So, 29.11. 19:00 0
So, 29.11. 13:00 0
So, 29.11. 7:00 0
So, 29.11. 1:00 0
Ortszeit Schneehöhe (cm)
Mo, 30.11. 19:00 0
Mo, 30.11. 18:50 0
Mo, 30.11. 18:40 0
Mo, 30.11. 18:30 0
Mo, 30.11. 18:20 0
Mo, 30.11. 18:10 0
Mo, 30.11. 18:00 0
Mo, 30.11. 17:30 0
Mo, 30.11. 17:00 0
Mo, 30.11. 16:30 0
Mo, 30.11. 16:00 0
Link zu dieser Seite / Seite empfehlen

Das Wetter in ...